Time;durP1;ratioP1;P1;durP2;ratioP2;P2;SDS_P1;SDS_P2;PMS_P1;PMS_P2;Temp;Humidity;BMP_temperature;BMP_pressure;BME280_temperature;BME280_humidity;BME280_pressure;Samples;Min_cycle;Max_cycle;Signal;HPM_P1;HPM_P2
2022/09/06 00:00:37;;;;;;;4.13;2.23;;;16.70;99.90;;;;;;4886716;29;20227;-52
2022/09/06 00:03:04;;;;;;;3.10;2.00;;;16.70;99.90;;;;;;4877308;29;20425;-52
2022/09/06 00:05:31;;;;;;;3.30;2.00;;;16.70;99.90;;;;;;4862451;29;20521;-52
2022/09/06 00:08:01;;;;;;;4.23;1.93;;;16.70;99.90;;;;;;4875645;29;20463;-52
2022/09/06 00:10:28;;;;;;;2.50;2.30;;;16.70;99.90;;;;;;4876661;29;20429;-52
2022/09/06 00:12:54;;;;;;;4.10;2.47;;;16.70;99.90;;;;;;4876917;29;20422;-52
2022/09/06 00:15:21;;;;;;;3.43;2.10;;;16.60;99.90;;;;;;4876890;29;20421;-52
2022/09/06 00:17:47;;;;;;;2.07;1.90;;;16.70;99.90;;;;;;4876097;29;20842;-52
2022/09/06 00:20:14;;;;;;;4.20;2.00;;;16.60;99.90;;;;;;4876038;29;20852;-52
2022/09/06 00:22:39;;;;;;;3.33;2.23;;;16.60;99.90;;;;;;4875720;29;20433;-52
2022/09/06 00:25:06;;;;;;;3.63;2.23;;;16.60;99.90;;;;;;4871314;29;20451;-52
2022/09/06 00:27:32;;;;;;;5.60;2.07;;;16.60;99.90;;;;;;4873627;29;20232;-52
2022/09/06 00:29:58;;;;;;;3.30;1.90;;;16.60;99.90;;;;;;4876926;29;20432;-52
2022/09/06 00:32:24;;;;;;;3.33;2.33;;;16.50;99.90;;;;;;4856075;29;20445;-52
2022/09/06 00:34:49;;;;;;;6.37;2.20;;;16.60;99.90;;;;;;4864218;29;20713;-52
2022/09/06 00:37:15;;;;;;;5.10;2.20;;;16.60;99.90;;;;;;4862713;29;20192;-52
2022/09/06 00:39:40;;;;;;;2.77;2.10;;;16.60;99.90;;;;;;4857447;29;20224;-52
2022/09/06 00:42:11;;;;;;;4.30;2.23;;;16.60;99.90;;;;;;4874211;29;20351;-52
2022/09/06 00:44:38;;;;;;;2.90;2.20;;;16.60;99.90;;;;;;4857655;29;20188;-52
2022/09/06 00:47:06;;;;;;;3.17;2.30;;;16.50;99.90;;;;;;4866873;29;20448;-52
2022/09/06 00:49:37;;;;;;;2.57;2.23;;;16.50;99.90;;;;;;4873761;29;20435;-52
2022/09/06 00:52:08;;;;;;;3.53;2.23;;;16.50;99.90;;;;;;4890785;29;20447;-52
2022/09/06 00:54:34;;;;;;;2.93;2.07;;;16.50;99.90;;;;;;4875168;29;20525;-52
2022/09/06 00:57:00;;;;;;;5.53;2.33;;;16.40;99.90;;;;;;4875870;29;20448;-52
2022/09/06 00:59:32;;;;;;;2.00;1.80;;;16.50;99.90;;;;;;4876396;29;20804;-52
2022/09/06 01:01:57;;;;;;;3.43;2.10;;;16.40;99.90;;;;;;4876631;29;20476;-52
2022/09/06 01:04:25;;;;;;;2.37;2.17;;;16.40;99.90;;;;;;4876308;29;20425;-52
2022/09/06 01:07:21;;;;;;;5.00;2.23;;;16.40;99.90;;;;;;4875394;29;20185;-52
2022/09/06 01:10:05;;;;;;;4.57;2.23;;;16.40;99.90;;;;;;4880241;29;20427;-52
2022/09/06 01:12:57;;;;;;;4.63;2.80;;;16.40;99.90;;;;;;4879421;29;20531;-52
2022/09/06 01:15:33;;;;;;;3.47;3.17;;;16.40;99.90;;;;;;4875351;29;20926;-52
2022/09/06 01:18:07;;;;;;;3.30;2.20;;;16.30;99.90;;;;;;4873392;29;20484;-52
2022/09/06 01:20:56;;;;;;;2.33;2.10;;;16.40;99.90;;;;;;4879612;29;20472;-52
2022/09/06 01:24:00;;;;;;;3.40;2.03;;;16.40;99.90;;;;;;4820299;29;20457;-52
2022/09/06 01:26:45;;;;;;;5.77;2.10;;;16.40;99.90;;;;;;4878582;29;20491;-52
2022/09/06 01:29:21;;;;;;;3.53;2.50;;;16.40;99.90;;;;;;4861103;29;20438;-52
2022/09/06 01:32:13;;;;;;;2.67;2.47;;;16.40;99.90;;;;;;4878274;29;20444;-52
2022/09/06 01:34:44;;;;;;;3.40;2.43;;;16.40;99.90;;;;;;4879887;29;20424;-52
2022/09/06 01:37:16;;;;;;;2.97;2.20;;;16.40;99.90;;;;;;4878623;29;20958;-58
2022/09/06 01:39:42;;;;;;;2.50;2.10;;;16.40;99.90;;;;;;4879931;29;20416;-52
2022/09/06 01:42:27;;;;;;;8.40;2.80;;;16.40;99.90;;;;;;4879299;29;20850;-52
2022/09/06 01:45:00;;;;;;;3.47;2.40;;;16.40;99.90;;;;;;4864019;29;20253;-52
2022/09/06 01:47:43;;;;;;;3.80;2.80;;;16.40;99.90;;;;;;4860464;29;20445;-52
2022/09/06 01:50:09;;;;;;;4.30;1.90;;;16.40;99.90;;;;;;4863205;29;20432;-52
2022/09/06 01:52:52;;;;;;;3.30;2.20;;;16.30;99.90;;;;;;4860566;29;20960;-52
2022/09/06 01:55:53;;;;;;;3.77;2.30;;;16.30;99.90;;;;;;4858465;29;20201;-57
2022/09/06 01:58:37;;;;;;;3.87;2.30;;;16.20;99.90;;;;;;4870285;29;20472;-52
2022/09/06 02:01:15;;;;;;;3.23;2.57;;;16.20;99.90;;;;;;4865154;29;20476;-52
2022/09/06 02:03:51;;;;;;;2.50;1.90;;;16.20;99.90;;;;;;4868210;29;20451;-52
2022/09/06 02:06:22;;;;;;;3.83;2.40;;;16.30;99.90;;;;;;4860605;29;20632;-52
2022/09/06 02:08:52;;;;;;;3.90;2.40;;;16.20;99.90;;;;;;4867785;29;20455;-52
2022/09/06 02:11:18;;;;;;;7.80;2.30;;;16.20;99.90;;;;;;4860997;29;20629;-52
2022/09/06 02:13:51;;;;;;;4.40;2.37;;;16.30;99.90;;;;;;4860853;29;21026;-52
2022/09/06 02:16:23;;;;;;;4.00;2.30;;;16.20;99.90;;;;;;4860422;29;20191;-53
2022/09/06 02:18:59;;;;;;;3.67;2.40;;;16.20;99.90;;;;;;4861863;29;20446;-52
2022/09/06 02:21:29;;;;;;;3.83;2.60;;;16.20;99.90;;;;;;4860199;29;20488;-52
2022/09/06 02:23:59;;;;;;;3.97;2.20;;;16.20;99.90;;;;;;4860446;29;21980;-52
2022/09/06 02:26:29;;;;;;;3.37;3.07;;;16.10;99.90;;;;;;4862040;29;20474;-55
2022/09/06 02:28:55;;;;;;;5.20;2.00;;;16.10;99.90;;;;;;4860787;29;20480;-56
2022/09/06 02:31:36;;;;;;;3.53;3.17;;;16.10;99.90;;;;;;4861881;29;20464;-57
2022/09/06 02:34:03;;;;;;;4.90;2.53;;;16.20;99.90;;;;;;4866253;29;21017;-54
2022/09/06 02:36:30;;;;;;;3.10;2.70;;;16.20;99.90;;;;;;4877326;29;20931;-56
2022/09/06 02:38:58;;;;;;;4.43;2.17;;;16.10;99.90;;;;;;4877899;29;20409;-55
2022/09/06 02:41:24;;;;;;;3.73;2.03;;;16.10;99.90;;;;;;4876736;29;20568;-56
2022/09/06 02:43:50;;;;;;;4.80;2.40;;;16.10;99.90;;;;;;4877927;29;20448;-55
2022/09/06 02:46:15;;;;;;;3.10;2.40;;;16.10;99.90;;;;;;4876493;29;20445;-54
2022/09/06 02:48:41;;;;;;;2.47;2.27;;;16.10;99.90;;;;;;4860694;29;20195;-55
2022/09/06 02:51:07;;;;;;;4.23;2.03;;;16.10;99.90;;;;;;4876194;29;20225;-56
2022/09/06 02:53:33;;;;;;;3.03;2.47;;;16.10;99.90;;;;;;4860794;29;20533;-55
2022/09/06 02:55:59;;;;;;;2.37;2.17;;;16.10;99.90;;;;;;4877747;29;20441;-55
2022/09/06 02:58:25;;;;;;;3.10;2.40;;;16.10;99.90;;;;;;4875253;29;20795;-55
2022/09/06 03:00:51;;;;;;;4.93;2.57;;;16.00;99.90;;;;;;4876813;29;20277;-55
2022/09/06 03:03:21;;;;;;;4.57;2.50;;;16.10;99.90;;;;;;4876070;29;20441;-56
2022/09/06 03:05:51;;;;;;;2.83;2.40;;;16.10;99.90;;;;;;4877454;29;20950;-56
2022/09/06 03:08:18;;;;;;;3.30;2.53;;;16.10;99.90;;;;;;4877736;29;20568;-55
2022/09/06 03:10:51;;;;;;;2.80;2.30;;;16.00;99.90;;;;;;4877974;29;20479;-56
2022/09/06 03:13:17;;;;;;;2.30;2.20;;;16.10;99.90;;;;;;4874773;29;20531;-55
2022/09/06 03:15:43;;;;;;;4.50;2.23;;;16.00;99.90;;;;;;4877779;29;20497;-55
2022/09/06 03:18:09;;;;;;;5.23;2.43;;;16.00;99.90;;;;;;4876462;29;20192;-56
2022/09/06 03:20:35;;;;;;;3.93;2.27;;;16.10;99.90;;;;;;4874427;29;20448;-55
2022/09/06 03:23:00;;;;;;;7.23;3.30;;;16.10;99.90;;;;;;4876965;29;20302;-56
2022/09/06 03:25:26;;;;;;;3.63;2.67;;;16.10;99.90;;;;;;4877339;29;20275;-52
2022/09/06 03:27:52;;;;;;;4.37;2.30;;;16.10;99.90;;;;;;4885057;29;20232;-52
2022/09/06 03:30:17;;;;;;;3.50;2.30;;;16.10;99.90;;;;;;4890428;29;20195;-52
2022/09/06 03:32:44;;;;;;;4.33;2.50;;;16.10;99.90;;;;;;4876967;29;20563;-52
2022/09/06 03:35:10;;;;;;;3.53;2.33;;;16.00;99.90;;;;;;4877828;29;20196;-52
2022/09/06 03:37:35;;;;;;;3.07;2.40;;;16.00;99.90;;;;;;4884241;29;20449;-52
2022/09/06 03:40:05;;;;;;;3.17;2.20;;;16.00;99.90;;;;;;4875847;29;20449;-52
2022/09/06 03:42:31;;;;;;;2.27;2.07;;;16.10;99.90;;;;;;4885366;29;20212;-52
2022/09/06 03:44:57;;;;;;;2.83;2.23;;;16.00;99.90;;;;;;4876841;29;20456;-52
2022/09/06 03:47:22;;;;;;;4.97;2.23;;;16.00;99.90;;;;;;4887820;29;20258;-52
2022/09/06 03:49:48;;;;;;;4.17;2.20;;;16.10;99.90;;;;;;4874725;29;20207;-52
2022/09/06 03:52:14;;;;;;;4.23;2.40;;;16.00;99.90;;;;;;4866106;29;20196;-52
2022/09/06 03:54:40;;;;;;;3.47;2.47;;;16.00;99.90;;;;;;4864062;29;20219;-52
2022/09/06 03:57:05;;;;;;;4.40;2.33;;;16.00;99.90;;;;;;4863544;29;21011;-52
2022/09/06 03:59:31;;;;;;;7.53;2.40;;;16.00;99.90;;;;;;4878311;29;20215;-52
2022/09/06 04:01:57;;;;;;;3.20;2.50;;;16.00;99.90;;;;;;4894430;29;20874;-52
2022/09/06 04:04:23;;;;;;;3.40;2.30;;;15.90;99.90;;;;;;4873228;29;20192;-52
2022/09/06 04:06:48;;;;;;;4.13;2.60;;;15.90;99.90;;;;;;4872520;29;20242;-55
2022/09/06 04:09:14;;;;;;;3.77;2.10;;;15.90;99.90;;;;;;4875830;29;20280;-52
2022/09/06 04:11:40;;;;;;;7.37;2.67;;;16.00;99.90;;;;;;4875787;29;20238;-52
2022/09/06 04:14:05;;;;;;;5.00;2.27;;;16.00;99.90;;;;;;4877431;29;20200;-52
2022/09/06 04:16:31;;;;;;;3.03;2.60;;;16.00;99.90;;;;;;4876388;29;20512;-53
2022/09/06 04:18:59;;;;;;;3.03;2.60;;;16.00;99.90;;;;;;4877338;29;20296;-52
2022/09/06 04:21:25;;;;;;;5.93;2.60;;;15.90;99.90;;;;;;4877469;29;20300;-52
2022/09/06 04:23:51;;;;;;;3.87;2.03;;;15.90;99.90;;;;;;4877238;29;20460;-52
2022/09/06 04:26:16;;;;;;;3.67;2.13;;;15.90;99.90;;;;;;4883183;29;20874;-52
2022/09/06 04:28:42;;;;;;;3.10;2.47;;;15.90;99.90;;;;;;4876949;29;20228;-52
2022/09/06 04:31:07;;;;;;;4.83;2.57;;;15.90;99.90;;;;;;4857921;29;20204;-52
2022/09/06 04:33:35;;;;;;;2.93;2.30;;;15.90;99.90;;;;;;4873339;29;20207;-52
2022/09/06 04:36:04;;;;;;;3.47;2.47;;;15.90;99.90;;;;;;4875861;29;20188;-52
2022/09/06 04:38:33;;;;;;;4.30;2.43;;;15.80;99.90;;;;;;4874366;29;20539;-52
2022/09/06 04:40:59;;;;;;;4.17;1.93;;;15.80;99.90;;;;;;4875044;29;20473;-52
2022/09/06 04:43:25;;;;;;;2.77;2.27;;;15.80;99.90;;;;;;4874284;29;20451;-52
2022/09/06 04:45:50;;;;;;;2.40;2.20;;;15.80;99.90;;;;;;4875190;29;20546;-52
2022/09/06 04:48:16;;;;;;;2.37;1.93;;;15.70;99.90;;;;;;4874960;29;20233;-52
2022/09/06 04:50:42;;;;;;;3.23;2.53;;;15.80;99.90;;;;;;4876169;29;20191;-52
2022/09/06 04:53:09;;;;;;;4.87;2.20;;;15.80;99.90;;;;;;4859357;29;20206;-52
2022/09/06 04:55:36;;;;;;;7.60;2.40;;;15.80;99.90;;;;;;4875512;29;20679;-53
2022/09/06 04:58:02;;;;;;;5.20;2.00;;;15.80;99.90;;;;;;4873794;29;20539;-53
2022/09/06 05:00:31;;;;;;;2.33;1.93;;;15.80;99.90;;;;;;4861320;29;20447;-52
2022/09/06 05:02:57;;;;;;;4.37;2.30;;;15.80;99.90;;;;;;4875399;29;20839;-52
2022/09/06 05:05:23;;;;;;;4.30;1.90;;;15.80;99.90;;;;;;4862672;29;20437;-52
2022/09/06 05:07:53;;;;;;;2.90;1.87;;;15.80;99.90;;;;;;4874917;29;20875;-52
2022/09/06 05:10:20;;;;;;;2.80;1.93;;;15.90;99.90;;;;;;4874898;29;20994;-52
2022/09/06 05:12:50;;;;;;;7.20;2.10;;;15.90;99.90;;;;;;4875818;29;20453;-52
2022/09/06 05:15:16;;;;;;;4.13;2.07;;;15.90;99.90;;;;;;4862035;29;20455;-52
2022/09/06 05:17:42;;;;;;;2.90;2.20;;;15.90;99.90;;;;;;4876554;29;20444;-52
2022/09/06 05:20:09;;;;;;;2.33;1.97;;;15.90;99.90;;;;;;4875656;29;20445;-52
2022/09/06 05:22:35;;;;;;;4.23;2.00;;;16.00;99.90;;;;;;4874710;29;20216;-53
2022/09/06 05:25:01;;;;;;;3.50;2.00;;;15.90;99.90;;;;;;4874946;29;20449;-52
2022/09/06 05:27:26;;;;;;;2.43;2.10;;;16.00;99.90;;;;;;4874301;29;20235;-53
2022/09/06 05:29:52;;;;;;;4.77;2.10;;;16.00;99.90;;;;;;4879186;29;20196;-52
2022/09/06 05:32:17;;;;;;;2.93;1.63;;;16.00;99.90;;;;;;4884279;29;20206;-52
2022/09/06 05:34:43;;;;;;;2.23;1.87;;;16.00;99.90;;;;;;4889264;29;20670;-52
2022/09/06 05:37:08;;;;;;;3.50;1.83;;;16.00;99.90;;;;;;4875453;29;20196;-52
2022/09/06 05:39:34;;;;;;;3.57;2.10;;;16.10;99.90;;;;;;4875811;29;20530;-52
2022/09/06 05:42:05;;;;;;;2.37;2.13;;;16.10;99.90;;;;;;4875906;29;20682;-52
2022/09/06 05:44:34;;;;;;;4.27;1.80;;;16.10;99.90;;;;;;4889867;29;20177;-52
2022/09/06 05:47:00;;;;;;;4.53;2.50;;;16.10;99.90;;;;;;4879054;29;20441;-53
2022/09/06 05:49:28;;;;;;;2.10;1.70;;;16.20;99.90;;;;;;4874075;29;20463;-52
2022/09/06 05:51:54;;;;;;;5.50;2.53;;;16.30;99.90;;;;;;4880666;29;20198;-52
2022/09/06 05:54:19;;;;;;;9.10;2.30;;;16.30;99.90;;;;;;4888407;29;20814;-52
2022/09/06 05:56:45;;;;;;;3.73;1.60;;;16.30;99.90;;;;;;4892636;29;20184;-52
2022/09/06 05:59:11;;;;;;;3.63;1.67;;;16.30;99.90;;;;;;4877534;29;20646;-52
2022/09/06 06:01:45;;;;;;;4.17;2.67;;;16.40;99.90;;;;;;4877612;29;20248;-55
2022/09/06 06:04:10;;;;;;;2.20;2.00;;;16.50;99.90;;;;;;4879299;29;20176;-52
2022/09/06 06:06:36;;;;;;;2.40;1.70;;;16.50;99.90;;;;;;4889169;29;20986;-52
2022/09/06 06:09:02;;;;;;;4.63;2.07;;;16.60;99.90;;;;;;4884210;29;20561;-52
2022/09/06 06:11:29;;;;;;;3.73;1.63;;;16.70;99.90;;;;;;4877183;29;20192;-52
2022/09/06 06:13:55;;;;;;;2.93;1.50;;;16.80;99.90;;;;;;4880319;29;20224;-53
2022/09/06 06:16:22;;;;;;;6.00;1.83;;;16.80;99.90;;;;;;4886571;29;20806;-53
2022/09/06 06:18:48;;;;;;;4.97;1.70;;;16.80;99.90;;;;;;4875672;29;20752;-52
2022/09/06 06:21:20;;;;;;;3.50;1.40;;;16.90;99.90;;;;;;4881198;29;20463;-52
2022/09/06 06:23:48;;;;;;;2.90;1.57;;;16.90;99.90;;;;;;4876759;29;20917;-52
2022/09/06 06:26:14;;;;;;;6.40;2.03;;;16.90;99.90;;;;;;4878708;29;20444;-52
2022/09/06 06:28:40;;;;;;;4.20;1.70;;;16.90;99.90;;;;;;4864633;29;20532;-52
2022/09/06 06:31:07;;;;;;;4.73;1.70;;;16.90;99.90;;;;;;4879821;29;20192;-53
2022/09/06 06:33:35;;;;;;;1.83;1.70;;;17.00;99.90;;;;;;4875508;29;20556;-52
2022/09/06 06:36:07;;;;;;;3.03;1.67;;;16.90;99.90;;;;;;4877130;29;20450;-52
2022/09/06 06:38:36;;;;;;;4.43;1.80;;;17.00;99.90;;;;;;4877952;29;20500;-52
2022/09/06 06:41:04;;;;;;;3.23;1.50;;;17.00;99.90;;;;;;4874896;29;20579;-52
2022/09/06 06:43:35;;;;;;;6.80;2.03;;;17.00;99.90;;;;;;4876425;29;20508;-52
2022/09/06 06:46:05;;;;;;;2.73;2.00;;;17.10;99.90;;;;;;4876708;29;20453;-52
2022/09/06 06:48:31;;;;;;;9.23;1.80;;;17.00;99.90;;;;;;4877300;29;20912;-52
2022/09/06 06:50:57;;;;;;;5.47;1.80;;;17.00;99.90;;;;;;4877861;29;20452;-52
2022/09/06 06:53:23;;;;;;;3.23;1.80;;;17.10;99.90;;;;;;4876416;29;20200;-52
2022/09/06 06:55:49;;;;;;;5.07;1.70;;;17.10;99.90;;;;;;4876977;29;20469;-52
2022/09/06 06:58:15;;;;;;;3.37;1.83;;;17.10;99.90;;;;;;4878466;29;20444;-52
2022/09/06 07:00:41;;;;;;;4.20;1.80;;;17.10;99.90;;;;;;4876647;29;20272;-52
2022/09/06 07:03:08;;;;;;;3.97;2.03;;;17.10;99.90;;;;;;4876628;29;20448;-52
2022/09/06 07:05:34;;;;;;;1.50;1.40;;;17.10;99.90;;;;;;4878561;29;20433;-52
2022/09/06 07:08:00;;;;;;;4.83;1.73;;;17.10;99.90;;;;;;4878547;29;20425;-52
2022/09/06 07:10:25;;;;;;;3.70;1.80;;;17.20;99.90;;;;;;4877537;29;20947;-52
2022/09/06 07:12:51;;;;;;;4.10;2.03;;;17.30;99.90;;;;;;4878151;29;20248;-52
2022/09/06 07:15:17;;;;;;;4.40;1.90;;;17.40;99.90;;;;;;4870656;29;20671;-52
2022/09/06 07:17:43;;;;;;;4.83;2.10;;;17.50;99.90;;;;;;4877911;29;20233;-52
2022/09/06 07:20:09;;;;;;;2.90;1.80;;;17.50;99.90;;;;;;4877828;29;20445;-52
2022/09/06 07:22:36;;;;;;;5.40;1.87;;;17.50;99.90;;;;;;4878082;29;20200;-52
2022/09/06 07:25:03;;;;;;;3.50;1.60;;;17.50;99.90;;;;;;4877186;29;20448;-52
2022/09/06 07:27:29;;;;;;;2.57;1.63;;;17.60;99.90;;;;;;4877709;29;20472;-52
2022/09/06 07:29:55;;;;;;;4.50;2.10;;;17.60;99.90;;;;;;4877942;29;20453;-52
2022/09/06 07:32:21;;;;;;;2.03;1.90;;;17.60;99.90;;;;;;4876536;29;21010;-52
2022/09/06 07:34:46;;;;;;;3.37;2.00;;;17.60;99.90;;;;;;4877618;29;20200;-52
2022/09/06 07:37:12;;;;;;;6.17;1.90;;;17.60;99.90;;;;;;4875405;29;20452;-52
2022/09/06 07:39:38;;;;;;;3.47;1.80;;;17.60;99.90;;;;;;4879475;29;20192;-52
2022/09/06 07:42:05;;;;;;;3.37;2.00;;;17.50;99.90;;;;;;4881550;29;20220;-52
2022/09/06 07:44:31;;;;;;;2.30;1.80;;;17.50;99.90;;;;;;4877426;29;20457;-52
2022/09/06 07:46:56;;;;;;;4.07;1.70;;;17.60;99.90;;;;;;4877246;29;20520;-53
2022/09/06 07:49:22;;;;;;;3.83;2.10;;;17.60;99.90;;;;;;4876269;29;20271;-52
2022/09/06 07:51:48;;;;;;;3.83;2.20;;;17.70;99.90;;;;;;4874664;29;20185;-52
2022/09/06 07:54:13;;;;;;;3.33;1.90;;;17.80;99.90;;;;;;4877431;29;20249;-52
2022/09/06 07:56:39;;;;;;;4.57;1.83;;;17.90;99.90;;;;;;4876785;29;20454;-52
2022/09/06 07:59:05;;;;;;;4.57;2.13;;;17.90;99.90;;;;;;4875765;29;20300;-52
2022/09/06 08:01:35;;;;;;;5.60;1.97;;;17.90;99.90;;;;;;4874330;29;20255;-52
2022/09/06 08:04:04;;;;;;;4.00;1.70;;;17.90;99.90;;;;;;4886098;29;20670;-52
2022/09/06 08:06:32;;;;;;;15.87;2.07;;;18.00;99.90;;;;;;4875164;29;20444;-52
2022/09/06 08:08:59;;;;;;;2.10;1.90;;;18.10;99.90;;;;;;4877177;29;20644;-52
2022/09/06 08:11:27;;;;;;;2.27;2.00;;;18.10;99.90;;;;;;4877378;29;21029;-52
2022/09/06 08:13:54;;;;;;;4.13;2.00;;;18.10;99.90;;;;;;4876515;29;20441;-52
2022/09/06 08:16:21;;;;;;;8.50;2.13;;;18.10;99.90;;;;;;4886006;29;20938;-52
2022/09/06 08:18:52;;;;;;;4.80;2.13;;;18.10;99.90;;;;;;4889600;29;20524;-53
2022/09/06 08:21:17;;;;;;;5.97;2.20;;;18.10;99.90;;;;;;4876747;29;20464;-52
2022/09/06 08:23:47;;;;;;;5.00;2.17;;;18.20;99.90;;;;;;4876204;29;20778;-52
2022/09/06 08:26:15;;;;;;;3.80;1.90;;;18.30;99.90;;;;;;4877119;29;20192;-52
2022/09/06 08:28:41;;;;;;;2.17;1.73;;;18.30;99.90;;;;;;4874336;29;20846;-52
2022/09/06 08:31:08;;;;;;;3.10;2.20;;;18.50;99.90;;;;;;4874397;29;20452;-52
2022/09/06 08:33:35;;;;;;;2.37;2.13;;;18.70;99.90;;;;;;4876908;29;20320;-52
2022/09/06 08:36:00;;;;;;;6.00;2.50;;;18.80;99.90;;;;;;4860040;29;20451;-52
2022/09/06 08:38:27;;;;;;;9.10;2.20;;;18.90;99.90;;;;;;4875571;29;20448;-52
2022/09/06 08:41:03;;;;;;;2.50;2.20;;;18.90;99.90;;;;;;4875335;29;20208;-52
2022/09/06 08:43:29;;;;;;;3.63;2.37;;;18.90;99.90;;;;;;4874356;29;20448;-52
2022/09/06 08:45:55;;;;;;;6.83;2.57;;;18.80;99.90;;;;;;4876676;29;20431;-52
2022/09/06 08:48:24;;;;;;;5.87;2.30;;;18.70;99.90;;;;;;4875029;29;20535;-52
2022/09/06 08:51:33;;;;;;;6.37;2.60;;;18.90;99.90;;;;;;4876057;29;20432;-52
2022/09/06 08:54:07;;;;;;;3.13;2.03;;;19.00;99.90;;;;;;4875636;29;20959;-58
2022/09/06 08:56:54;;;;;;;5.90;2.00;;;19.00;99.90;;;;;;4870732;29;20471;-52
2022/09/06 08:59:20;;;;;;;4.03;2.60;;;18.80;99.90;;;;;;4874866;29;20548;-52
2022/09/06 09:01:46;;;;;;;6.70;2.53;;;18.70;99.90;;;;;;4869612;29;20494;-53
2022/09/06 09:04:18;;;;;;;5.90;2.50;;;18.60;99.90;;;;;;4879167;29;20188;-52
2022/09/06 09:06:49;;;;;;;3.47;2.20;;;18.60;99.90;;;;;;4880743;29;20240;-53
2022/09/06 09:09:15;;;;;;;4.90;2.33;;;18.50;99.90;;;;;;4879458;29;21016;-52
2022/09/06 09:11:48;;;;;;;5.13;2.17;;;18.60;99.90;;;;;;4891230;29;20444;-52
2022/09/06 09:14:28;;;;;;;3.07;2.60;;;18.60;99.90;;;;;;4867536;29;20540;-52
2022/09/06 09:17:03;;;;;;;3.47;2.07;;;18.70;99.90;;;;;;4872773;29;20455;-52
2022/09/06 09:19:32;;;;;;;3.27;2.50;;;18.70;99.90;;;;;;4875628;29;20493;-53
2022/09/06 09:21:58;;;;;;;4.90;2.57;;;18.70;99.90;;;;;;4869456;29;20475;-53
2022/09/06 09:24:23;;;;;;;2.73;2.43;;;18.70;99.90;;;;;;4876300;29;20912;-52
2022/09/06 09:27:02;;;;;;;3.80;2.30;;;18.60;99.90;;;;;;4876369;29;20550;-53
2022/09/06 09:29:28;;;;;;;9.70;3.00;;;18.60;99.90;;;;;;4874640;29;20203;-53
2022/09/06 09:31:55;;;;;;;6.20;2.43;;;18.70;99.90;;;;;;4874590;29;20440;-53
2022/09/06 09:34:38;;;;;;;4.77;2.70;;;18.70;99.90;;;;;;4878840;29;20192;-52
2022/09/06 09:37:10;;;;;;;7.43;3.10;;;18.60;99.90;;;;;;4874264;29;20437;-52
2022/09/06 09:39:38;;;;;;;5.33;2.90;;;18.70;99.90;;;;;;4871920;29;20445;-52
2022/09/06 09:42:04;;;;;;;4.30;2.30;;;18.70;99.90;;;;;;4861286;29;20544;-53
2022/09/06 09:44:29;;;;;;;5.70;2.60;;;18.80;99.90;;;;;;4861204;29;20410;-52
2022/09/06 09:46:55;;;;;;;7.20;2.73;;;18.80;99.90;;;;;;4870222;29;20284;-56
2022/09/06 09:49:20;;;;;;;6.93;2.80;;;18.80;99.90;;;;;;4875131;29;20813;-52
2022/09/06 09:52:06;;;;;;;8.77;2.40;;;18.80;99.90;;;;;;4875433;29;20275;-56
2022/09/06 09:54:36;;;;;;;5.43;2.63;;;18.80;99.90;;;;;;4863970;29;20179;-54
2022/09/06 09:57:06;;;;;;;5.10;3.03;;;18.70;99.90;;;;;;4872716;29;20845;-52
2022/09/06 09:59:35;;;;;;;8.80;2.80;;;18.70;99.90;;;;;;4870614;29;20426;-52
2022/09/06 10:02:15;;;;;;;4.77;2.77;;;18.70;99.90;;;;;;4868033;29;20483;-53
2022/09/06 10:04:51;;;;;;;5.53;2.90;;;18.70;99.90;;;;;;4878466;29;20879;-52
2022/09/06 10:07:23;;;;;;;3.67;2.67;;;18.70;99.90;;;;;;4879228;29;20408;-52
2022/09/06 10:09:56;;;;;;;5.30;2.53;;;18.70;99.90;;;;;;4877771;29;20421;-52
2022/09/06 10:12:29;;;;;;;3.93;2.47;;;18.70;99.90;;;;;;4877220;29;20876;-52
2022/09/06 10:14:55;;;;;;;5.30;2.50;;;18.80;99.90;;;;;;4877652;29;20448;-53
2022/09/06 10:17:35;;;;;;;5.30;2.60;;;18.80;99.90;;;;;;4875666;29;20459;-52
2022/09/06 10:20:06;;;;;;;7.13;3.30;;;18.90;99.90;;;;;;4864958;29;20425;-55
2022/09/06 10:23:01;;;;;;;4.30;3.20;;;18.90;99.90;;;;;;4877429;29;20610;-55
2022/09/06 10:25:45;;;;;;;2.73;2.53;;;18.80;99.90;;;;;;4859443;29;20418;-55
2022/09/06 10:28:32;;;;;;;5.07;2.27;;;18.90;99.90;;;;;;4860336;29;20478;-55
2022/09/06 10:31:07;;;;;;;4.13;2.40;;;18.90;99.90;;;;;;4880201;29;20483;-55
2022/09/06 10:34:06;;;;;;;3.37;2.50;;;19.00;99.90;;;;;;4877952;29;20507;-55
2022/09/06 10:36:37;;;;;;;4.10;3.00;;;18.90;99.90;;;;;;4874078;29;20441;-55
2022/09/06 10:39:08;;;;;;;3.43;2.63;;;19.00;99.90;;;;;;4874468;29;20450;-55
2022/09/06 10:41:46;;;;;;;6.33;2.80;;;18.90;99.90;;;;;;4875471;29;20472;-56
2022/09/06 10:44:50;;;;;;;5.80;2.80;;;18.90;99.90;;;;;;4877793;29;20431;-55
2022/09/06 10:47:16;;;;;;;7.20;3.17;;;19.00;99.90;;;;;;4849137;29;20458;-57
2022/09/06 10:49:47;;;;;;;3.70;2.40;;;19.00;99.90;;;;;;4877734;29;20429;-56
2022/09/06 10:52:24;;;;;;;5.43;2.67;;;18.90;99.90;;;;;;4877111;29;20482;-55
2022/09/06 10:54:54;;;;;;;4.60;2.63;;;19.00;99.90;;;;;;4860015;29;20497;-55
2022/09/06 10:57:26;;;;;;;3.70;2.73;;;19.10;99.90;;;;;;4861274;29;20428;-54
2022/09/06 11:00:04;;;;;;;5.77;3.07;;;19.20;99.90;;;;;;4870542;29;20452;-55
2022/09/06 11:02:37;;;;;;;3.97;2.77;;;19.20;99.90;;;;;;4858835;29;20472;-55
2022/09/06 11:05:21;;;;;;;10.53;3.00;;;19.20;99.90;;;;;;4877148;29;21183;-56
2022/09/06 11:07:55;;;;;;;5.70;2.93;;;19.10;99.90;;;;;;4877246;29;20421;-55
2022/09/06 11:10:27;;;;;;;5.50;3.07;;;19.20;99.90;;;;;;4876680;29;20448;-55
2022/09/06 11:13:02;;;;;;;4.60;3.10;;;19.40;99.90;;;;;;4875923;29;20805;-56
2022/09/06 11:15:39;;;;;;;4.80;2.70;;;19.40;99.90;;;;;;4877382;29;20436;-56
2022/09/06 11:18:15;;;;;;;6.43;2.70;;;19.40;99.90;;;;;;4878899;29;20764;-56
2022/09/06 11:20:47;;;;;;;4.50;2.33;;;19.40;99.90;;;;;;4878377;29;20462;-55
2022/09/06 11:23:28;;;;;;;10.20;2.73;;;19.50;99.90;;;;;;4860967;29;20440;-55
2022/09/06 11:26:09;;;;;;;3.40;2.50;;;19.50;99.90;;;;;;4877971;29;20451;-55
2022/09/06 11:28:42;;;;;;;4.23;2.90;;;19.60;99.90;;;;;;4885803;29;20476;-55
2022/09/06 11:31:12;;;;;;;11.70;2.50;;;19.60;99.90;;;;;;4876006;29;20524;-55
2022/09/06 11:33:38;;;;;;;4.70;2.60;;;19.70;99.90;;;;;;4868304;29;20441;-56
2022/09/06 11:36:35;;;;;;;7.80;3.03;;;19.80;99.90;;;;;;4878077;29;20401;-55
2022/09/06 11:39:03;;;;;;;4.07;2.80;;;19.80;99.90;;;;;;4877009;29;20515;-55
2022/09/06 11:41:41;;;;;;;7.47;2.43;;;19.90;99.90;;;;;;4877462;29;20512;-56
2022/09/06 11:44:10;;;;;;;8.80;2.40;;;20.00;99.90;;;;;;4876458;29;20436;-55
2022/09/06 11:46:41;;;;;;;2.43;2.23;;;19.90;99.90;;;;;;4883998;29;22144;-55
2022/09/06 11:49:26;;;;;;;8.40;3.17;;;19.80;99.90;;;;;;4896731;29;20412;-55
2022/09/06 11:51:51;;;;;;;5.93;2.70;;;19.80;99.90;;;;;;4894038;29;20479;-55
2022/09/06 11:54:21;;;;;;;7.33;2.53;;;19.70;99.90;;;;;;4896293;29;20885;-55
2022/09/06 11:56:46;;;;;;;7.47;2.50;;;19.70;99.90;;;;;;4891503;29;20246;-56
2022/09/06 11:59:18;;;;;;;4.00;2.63;;;19.70;99.90;;;;;;4877167;29;20465;-55
2022/09/06 12:02:01;;;;;;;4.30;2.40;;;19.70;99.90;;;;;;4877595;29;20703;-55
2022/09/06 12:04:58;;;;;;;6.60;2.67;;;19.70;99.90;;;;;;4894404;29;21035;-55
2022/09/06 12:07:24;;;;;;;13.90;2.53;;;19.70;99.90;;;;;;4896265;29;20471;-55
2022/09/06 12:09:50;;;;;;;5.63;2.53;;;19.60;99.90;;;;;;4895952;29;20435;-63
2022/09/06 12:12:37;;;;;;;7.97;2.53;;;19.50;99.90;;;;;;4892212;29;20455;-55
2022/09/06 12:15:25;;;;;;;9.27;2.93;;;19.50;99.90;;;;;;4896244;29;20416;-57
2022/09/06 12:17:50;;;;;;;6.13;2.57;;;19.40;99.90;;;;;;4894074;29;20495;-57
2022/09/06 12:20:47;;;;;;;4.97;2.70;;;19.30;99.90;;;;;;4895891;29;20403;-55
2022/09/06 12:23:34;;;;;;;2.80;2.50;;;19.40;99.90;;;;;;4879580;29;20217;-55
2022/09/06 12:26:05;;;;;;;3.03;2.50;;;19.40;99.90;;;;;;4877250;29;20515;-55
2022/09/06 12:28:50;;;;;;;3.70;2.40;;;19.40;99.90;;;;;;4875914;29;20971;-55
2022/09/06 12:31:30;;;;;;;6.83;2.53;;;19.50;99.90;;;;;;4876708;29;20426;-56
2022/09/06 12:33:56;;;;;;;5.70;2.80;;;19.50;99.90;;;;;;4870953;29;20475;-55
2022/09/06 12:36:29;;;;;;;4.33;2.27;;;19.60;99.90;;;;;;4876937;29;20475;-55
2022/09/06 12:39:12;;;;;;;5.80;3.00;;;19.60;99.90;;;;;;4876379;29;20927;-55
2022/09/06 12:41:46;;;;;;;7.30;2.73;;;19.60;99.90;;;;;;4876156;29;20794;-56
2022/09/06 12:44:13;;;;;;;11.93;3.00;;;19.70;99.90;;;;;;4876635;29;20476;-55
2022/09/06 12:46:48;;;;;;;6.43;2.30;;;19.70;99.90;;;;;;4876264;29;20448;-57
2022/09/06 12:49:19;;;;;;;4.93;2.57;;;19.70;99.90;;;;;;4876930;29;20404;-52
2022/09/06 12:51:46;;;;;;;5.17;2.37;;;19.80;99.90;;;;;;4870157;29;20483;-52
2022/09/06 12:54:21;;;;;;;3.50;2.50;;;19.90;99.90;;;;;;4874878;29;20460;-56
2022/09/06 12:56:47;;;;;;;12.10;2.93;;;19.90;99.90;;;;;;4874958;29;20454;-55
2022/09/06 12:59:22;;;;;;;5.87;2.60;;;20.00;99.90;;;;;;4876535;29;20908;-55
2022/09/06 13:02:05;;;;;;;9.57;2.67;;;20.00;99.90;;;;;;4876104;29;20552;-55